createdAt,value
2023-04-12T00:00:52.424Z,10.71
2023-04-12T00:01:52.152Z,10.71
2023-04-12T00:02:52.484Z,10.71
2023-04-12T00:03:52.599Z,10.71
2023-04-12T00:04:52.120Z,10.72
2023-04-12T00:05:52.071Z,10.72
2023-04-12T00:06:52.059Z,10.72
2023-04-12T00:07:52.346Z,10.73
2023-04-12T00:08:52.038Z,10.73
2023-04-12T00:09:52.026Z,10.73
2023-04-12T00:10:52.292Z,10.73
2023-04-12T00:11:52.008Z,10.73
2023-04-12T00:12:52.281Z,10.73
2023-04-12T00:13:52.254Z,10.74
2023-04-12T00:14:51.978Z,10.75
2023-04-12T00:15:52.270Z,10.75
2023-04-12T00:16:51.957Z,10.75
2023-04-12T00:17:51.988Z,10.76
2023-04-12T00:18:51.939Z,10.76
2023-04-12T00:19:51.929Z,10.78
2023-04-12T00:20:51.912Z,10.78
2023-04-12T00:21:51.222Z,10.79
2023-04-12T00:22:51.876Z,10.80
2023-04-12T00:23:51.199Z,10.81
2023-04-12T00:24:51.872Z,10.82
2023-04-12T00:25:51.864Z,10.83
2023-04-12T00:26:51.854Z,10.84
2023-04-12T00:27:51.823Z,10.85
2023-04-12T00:28:51.146Z,10.86
2023-04-12T00:29:51.824Z,10.87
2023-04-12T00:30:52.093Z,10.88
2023-04-12T00:31:51.804Z,10.89
2023-04-12T00:32:51.807Z,10.90
2023-04-12T00:33:51.103Z,10.91
2023-04-12T00:34:51.085Z,10.91
2023-04-12T00:35:51.806Z,10.92
2023-04-12T00:36:51.746Z,10.93
2023-04-12T00:37:51.726Z,10.94
2023-04-12T00:38:51.049Z,10.95
2023-04-12T00:39:51.040Z,10.96
2023-04-12T00:40:51.703Z,10.97
2023-04-12T00:41:51.697Z,10.97
2023-04-12T00:42:51.007Z,10.97
2023-04-12T00:43:51.677Z,10.98
2023-04-12T00:44:51.659Z,10.99
2023-04-12T00:45:51.649Z,10.99
2023-04-12T00:46:51.681Z,11.00
2023-04-12T00:47:51.671Z,11.01
2023-04-12T00:48:51.617Z,11.02
2023-04-12T00:49:51.612Z,11.02
2023-04-12T00:50:50.910Z,11.03
2023-04-12T00:51:50.904Z,11.03
2023-04-12T00:52:50.916Z,11.04
2023-04-12T00:53:51.571Z,11.05
2023-04-12T00:54:51.562Z,11.06
2023-04-12T00:55:51.566Z,11.06
2023-04-12T00:56:51.544Z,11.07
2023-04-12T00:57:50.850Z,11.08
2023-04-12T00:58:51.514Z,11.10
2023-04-12T00:59:51.512Z,11.10
2023-04-12T01:00:51.511Z,11.11
2023-04-12T01:01:51.548Z,11.12
2023-04-12T01:02:51.630Z,11.12
2023-04-12T01:03:50.833Z,11.13
2023-04-12T01:04:51.471Z,11.14
2023-04-12T01:05:51.439Z,11.14
2023-04-12T01:06:51.436Z,11.15
2023-04-12T01:07:51.411Z,11.15
2023-04-12T01:08:50.721Z,11.15
2023-04-12T01:09:50.715Z,11.16
2023-04-12T01:10:51.389Z,11.17
2023-04-12T01:11:51.376Z,11.17
2023-04-12T01:12:50.696Z,11.17
2023-04-12T01:13:51.352Z,11.18
2023-04-12T01:14:51.340Z,11.18
2023-04-12T01:15:50.663Z,11.18
2023-04-12T01:16:51.396Z,11.18
2023-04-12T01:17:50.688Z,11.18
2023-04-12T01:18:51.302Z,11.18
2023-04-12T01:19:51.283Z,11.19
2023-04-12T01:20:50.598Z,11.19
2023-04-12T01:21:51.266Z,11.19
2023-04-12T01:22:51.242Z,11.18
2023-04-12T01:23:51.244Z,11.19
2023-04-12T01:24:51.234Z,11.18
2023-04-12T01:25:50.572Z,11.19
2023-04-12T01:26:51.213Z,11.19
2023-04-12T01:27:50.536Z,11.19
2023-04-12T01:28:51.197Z,11.19
2023-04-12T01:29:50.486Z,11.19
2023-04-12T01:30:51.173Z,11.19
2023-04-12T01:31:51.189Z,11.19
2023-04-12T01:32:51.201Z,11.19
2023-04-12T01:33:51.151Z,11.19
2023-04-12T01:34:51.127Z,11.18
2023-04-12T01:35:51.150Z,11.18
2023-04-12T01:36:50.422Z,11.18
2023-04-12T01:37:51.080Z,11.19
2023-04-12T01:38:50.404Z,11.18
2023-04-12T01:39:51.083Z,11.19
2023-04-12T01:40:51.085Z,11.20
2023-04-12T01:41:51.058Z,11.21
2023-04-12T01:42:51.027Z,11.22
2023-04-12T01:43:50.347Z,11.22
2023-04-12T01:44:51.028Z,11.23
2023-04-12T01:45:51.080Z,11.24
2023-04-12T01:46:50.341Z,11.25
2023-04-12T01:47:50.366Z,11.26
2023-04-12T01:48:50.987Z,11.26
2023-04-12T01:49:50.322Z,11.27
2023-04-12T01:50:50.273Z,11.27
2023-04-12T01:51:50.277Z,11.28
2023-04-12T01:52:50.919Z,11.27
2023-04-12T01:53:50.241Z,11.28
2023-04-12T01:54:50.912Z,11.29
2023-04-12T01:55:50.233Z,11.29
2023-04-12T01:56:50.894Z,11.29
2023-04-12T01:57:50.884Z,11.29
2023-04-12T01:58:50.870Z,11.31
2023-04-12T01:59:50.862Z,11.31
2023-04-12T02:00:50.877Z,11.31
2023-04-12T02:01:50.227Z,11.32
2023-04-12T02:02:50.288Z,11.31
2023-04-12T02:03:51.157Z,11.32
2023-04-12T02:04:50.814Z,11.33
2023-04-12T02:05:50.799Z,11.33
2023-04-12T02:06:50.109Z,11.33
2023-04-12T02:07:50.098Z,11.33
2023-04-12T02:08:50.768Z,11.33
2023-04-12T02:09:50.075Z,11.33
2023-04-12T02:10:50.743Z,11.34
2023-04-12T02:11:50.762Z,11.34
2023-04-12T02:12:50.048Z,11.34
2023-04-12T02:13:50.036Z,11.34
2023-04-12T02:14:50.702Z,11.34
2023-04-12T02:15:50.004Z,11.34
2023-04-12T02:16:50.863Z,11.34
2023-04-12T02:17:50.038Z,11.33
2023-04-12T02:18:50.658Z,11.33
2023-04-12T02:19:50.665Z,11.34
2023-04-12T02:20:50.649Z,11.33
2023-04-12T02:21:50.629Z,11.34
2023-04-12T02:22:52.076Z,11.34
2023-04-12T02:23:50.617Z,11.34
2023-04-12T02:24:49.924Z,11.34
2023-04-12T02:25:49.909Z,11.33
2023-04-12T02:26:50.572Z,11.34
2023-04-12T02:27:50.546Z,11.34
2023-04-12T02:28:49.865Z,11.33
2023-04-12T02:29:49.848Z,11.34
2023-04-12T02:30:49.886Z,11.34
2023-04-12T02:31:49.836Z,11.34
2023-04-12T02:32:49.867Z,11.34
2023-04-12T02:33:49.809Z,11.33
2023-04-12T02:34:50.489Z,11.33
2023-04-12T02:35:50.546Z,11.32
2023-04-12T02:36:50.476Z,11.31
2023-04-12T02:37:49.790Z,11.30
2023-04-12T02:38:50.446Z,11.29
2023-04-12T02:39:49.742Z,11.27
2023-04-12T02:40:50.434Z,11.25
2023-04-12T02:41:50.413Z,11.25
2023-04-12T02:42:49.754Z,11.24
2023-04-12T02:43:50.393Z,11.24
2023-04-12T02:44:50.380Z,11.23
2023-04-12T02:45:50.428Z,11.22
2023-04-12T02:46:50.356Z,11.22
2023-04-12T02:47:50.381Z,11.23
2023-04-12T02:48:50.331Z,11.24
2023-04-12T02:49:50.330Z,11.22
2023-04-12T02:50:50.312Z,11.22
2023-04-12T02:51:50.302Z,11.23
2023-04-12T02:52:49.666Z,11.23
2023-04-12T02:53:49.605Z,11.22
2023-04-12T02:54:50.274Z,11.23
2023-04-12T02:55:50.262Z,11.22
2023-04-12T02:56:50.516Z,11.21
2023-04-12T02:57:50.217Z,11.19
2023-04-12T02:58:50.236Z,11.18
2023-04-12T02:59:50.486Z,11.17
2023-04-12T03:00:50.457Z,11.16
2023-04-12T03:01:50.540Z,11.14
2023-04-12T03:02:50.322Z,11.13
2023-04-12T03:03:50.606Z,11.12
2023-04-12T03:04:50.422Z,11.10
2023-04-12T03:05:50.436Z,11.10
2023-04-12T03:06:50.142Z,11.10
2023-04-12T03:07:50.411Z,11.10
2023-04-12T03:08:50.116Z,11.10
2023-04-12T03:09:50.114Z,11.10
2023-04-12T03:10:50.106Z,11.10
2023-04-12T03:11:50.383Z,11.10
2023-04-12T03:12:50.341Z,11.10
2023-04-12T03:13:50.340Z,11.09
2023-04-12T03:14:50.061Z,11.10
2023-04-12T03:15:50.336Z,11.09
2023-04-12T03:16:50.289Z,11.08
2023-04-12T03:17:50.077Z,11.06
2023-04-12T03:18:50.002Z,11.05
2023-04-12T03:19:50.290Z,11.03
2023-04-12T03:20:50.249Z,11.02
2023-04-12T03:21:50.239Z,11.00
2023-04-12T03:22:49.992Z,10.97
2023-04-12T03:23:50.277Z,10.95
2023-04-12T03:24:49.946Z,10.93
2023-04-12T03:25:50.224Z,10.92
2023-04-12T03:26:49.927Z,10.91
2023-04-12T03:27:49.896Z,10.89
2023-04-12T03:28:50.193Z,10.86
2023-04-12T03:29:51.172Z,10.85
2023-04-12T03:30:50.187Z,10.84
2023-04-12T03:31:50.147Z,10.83
2023-04-12T03:32:49.873Z,10.83
2023-04-12T03:33:49.864Z,10.83
2023-04-12T03:34:49.844Z,10.84
2023-04-12T03:35:49.884Z,10.83
2023-04-12T03:36:49.868Z,10.85
2023-04-12T03:37:49.789Z,10.85
2023-04-12T03:38:49.803Z,10.83
2023-04-12T03:39:49.122Z,10.83
2023-04-12T03:40:50.052Z,10.82
2023-04-12T03:41:49.781Z,10.82
2023-04-12T03:42:49.737Z,10.82
2023-04-12T03:43:49.751Z,10.80
2023-04-12T03:44:50.002Z,10.79
2023-04-12T03:45:49.722Z,10.80
2023-04-12T03:46:49.748Z,10.78
2023-04-12T03:47:49.753Z,10.78
2023-04-12T03:48:49.010Z,10.77
2023-04-12T03:50:05.985Z,10.76
2023-04-12T03:50:49.975Z,10.75
2023-04-12T03:51:49.666Z,10.74
2023-04-12T03:52:48.993Z,10.73
2023-04-12T03:53:49.656Z,10.72
2023-04-12T03:54:49.628Z,10.70
2023-04-12T03:55:49.637Z,10.69
2023-04-12T03:56:48.935Z,10.68
2023-04-12T03:57:49.605Z,10.66
2023-04-12T03:58:48.911Z,10.65
2023-04-12T03:59:49.936Z,10.64
2023-04-12T04:00:49.670Z,10.62
2023-04-12T04:01:49.883Z,10.61
2023-04-12T04:02:49.895Z,10.60
2023-04-12T04:03:49.689Z,10.60
2023-04-12T04:04:49.593Z,10.60
2023-04-12T04:05:49.508Z,10.59
2023-04-12T04:06:49.768Z,10.60
2023-04-12T04:07:48.831Z,10.60
2023-04-12T04:08:49.493Z,10.60
2023-04-12T04:09:49.479Z,10.60
2023-04-12T04:10:48.811Z,10.61
2023-04-12T04:11:49.446Z,10.61
2023-04-12T04:12:49.417Z,10.61
2023-04-12T04:13:49.429Z,10.61
2023-04-12T04:14:49.699Z,10.62
2023-04-12T04:15:48.720Z,10.62
2023-04-12T04:16:48.798Z,10.62
2023-04-12T04:17:49.391Z,10.62
2023-04-12T04:18:48.722Z,10.63
2023-04-12T04:19:49.361Z,10.64
2023-04-12T04:20:49.352Z,10.65
2023-04-12T04:21:48.664Z,10.66
2023-04-12T04:22:48.670Z,10.67
2023-04-12T04:23:48.638Z,10.67
2023-04-12T04:24:49.312Z,10.68
2023-04-12T04:25:49.294Z,10.69
2023-04-12T04:26:49.286Z,10.70
2023-04-12T04:27:48.608Z,10.73
2023-04-12T04:28:48.596Z,10.74
2023-04-12T04:29:49.294Z,10.75
2023-04-12T04:30:48.583Z,10.76
2023-04-12T04:31:48.674Z,10.77
2023-04-12T04:32:49.222Z,10.77
2023-04-12T04:33:49.234Z,10.77
2023-04-12T04:34:49.491Z,10.78
2023-04-12T04:35:49.513Z,10.79
2023-04-12T04:36:49.229Z,10.79
2023-04-12T04:37:48.526Z,10.79
2023-04-12T04:38:49.170Z,10.80
2023-04-12T04:39:49.146Z,10.80
2023-04-12T04:40:49.140Z,10.81
2023-04-12T04:41:49.387Z,10.81
2023-04-12T04:42:49.101Z,10.83
2023-04-12T04:43:49.108Z,10.84
2023-04-12T04:44:48.417Z,10.84
2023-04-12T04:45:48.447Z,10.83
2023-04-12T04:46:49.131Z,10.83
2023-04-12T04:47:49.342Z,10.83
2023-04-12T04:48:49.328Z,10.83
2023-04-12T04:49:49.311Z,10.83
2023-04-12T04:50:49.038Z,10.83
2023-04-12T04:51:49.029Z,10.83
2023-04-12T04:52:48.993Z,10.84
2023-04-12T04:53:49.261Z,10.84
2023-04-12T04:54:49.001Z,10.85
2023-04-12T04:55:49.261Z,10.85
2023-04-12T04:56:48.972Z,10.88
2023-04-12T04:57:48.314Z,10.89
2023-04-12T04:58:48.289Z,10.90
2023-04-12T04:59:48.945Z,10.90
2023-04-12T05:00:48.325Z,10.91
2023-04-12T05:01:48.349Z,10.93
2023-04-12T05:02:49.017Z,10.94
2023-04-12T05:03:49.009Z,10.96
2023-04-12T05:04:48.908Z,10.97
2023-04-12T05:05:48.204Z,10.99
2023-04-12T05:06:48.226Z,10.99
2023-04-12T05:07:48.855Z,11.00
2023-04-12T05:08:48.229Z,11.00
2023-04-12T05:09:48.834Z,11.01
2023-04-12T05:10:48.229Z,11.01
2023-04-12T05:11:48.820Z,11.02
2023-04-12T05:12:49.091Z,11.03
2023-04-12T05:13:48.795Z,11.04
2023-04-12T05:14:51.656Z,11.05
2023-04-12T05:15:48.783Z,11.05
2023-04-12T05:16:49.089Z,11.07
2023-04-12T05:17:49.102Z,11.07
2023-04-12T05:18:48.759Z,11.07
2023-04-12T05:19:48.734Z,11.06
2023-04-12T05:20:48.041Z,11.05
2023-04-12T05:21:48.768Z,11.05
2023-04-12T05:22:48.025Z,11.05
2023-04-12T05:23:48.946Z,11.04
2023-04-12T05:24:48.705Z,11.04
2023-04-12T05:25:48.035Z,11.06
2023-04-12T05:26:47.969Z,11.08
2023-04-12T05:27:50.302Z,11.11
2023-04-12T05:28:48.635Z,11.14
2023-04-12T05:29:48.621Z,11.18
2023-04-12T05:30:48.690Z,11.20
2023-04-12T05:31:47.929Z,11.24
2023-04-12T05:32:48.939Z,11.25
2023-04-12T05:33:48.587Z,11.26
2023-04-12T05:34:48.572Z,11.26
2023-04-12T05:35:48.694Z,11.25
2023-04-12T05:36:48.546Z,11.23
2023-04-12T05:37:48.515Z,11.21
2023-04-12T05:38:47.851Z,11.19
2023-04-12T05:39:48.518Z,11.17
2023-04-12T05:40:48.508Z,11.15
2023-04-12T05:41:48.496Z,11.13
2023-04-12T05:42:48.463Z,11.10
2023-04-12T05:43:47.811Z,11.07
2023-04-12T05:44:49.762Z,11.03
2023-04-12T05:45:47.817Z,10.98
2023-04-12T05:46:48.488Z,10.93
2023-04-12T05:47:47.828Z,10.88
2023-04-12T05:48:48.486Z,10.83
2023-04-12T05:49:47.722Z,10.81
2023-04-12T05:50:48.398Z,10.76
2023-04-12T05:51:48.411Z,10.73
2023-04-12T05:52:48.680Z,10.71
2023-04-12T05:53:48.371Z,10.69
2023-04-12T05:54:47.680Z,10.68
2023-04-12T05:55:47.674Z,10.67
2023-04-12T05:56:47.686Z,10.65
2023-04-12T05:57:47.681Z,10.63
2023-04-12T05:58:48.317Z,10.61
2023-04-12T05:59:48.308Z,10.61
2023-04-12T06:00:48.297Z,10.60
2023-04-12T06:01:47.638Z,10.60
2023-04-12T06:02:48.259Z,10.59
2023-04-12T06:03:47.737Z,10.60
2023-04-12T06:04:50.843Z,10.61
2023-04-12T06:05:48.499Z,10.60
2023-04-12T06:06:49.488Z,10.60
2023-04-12T06:07:47.547Z,10.59
2023-04-12T06:08:48.216Z,10.57
2023-04-12T06:09:47.521Z,10.55
2023-04-12T06:10:48.197Z,10.53
2023-04-12T06:11:49.430Z,10.52
2023-04-12T06:12:48.151Z,10.50
2023-04-12T06:13:47.497Z,10.49
2023-04-12T06:14:48.165Z,10.49
2023-04-12T06:15:48.192Z,10.49
2023-04-12T06:16:48.390Z,10.49
2023-04-12T06:17:48.138Z,10.49
2023-04-12T06:18:48.109Z,10.49
2023-04-12T06:19:47.425Z,10.48
2023-04-12T06:20:48.353Z,10.48
2023-04-12T06:21:48.370Z,10.45
2023-04-12T06:22:48.354Z,10.44
2023-04-12T06:23:48.051Z,10.43
2023-04-12T06:24:48.043Z,10.42
2023-04-12T06:25:48.031Z,10.41
2023-04-12T06:26:48.023Z,10.40
2023-04-12T06:27:48.291Z,10.40
2023-04-12T06:28:48.277Z,10.40
2023-04-12T06:29:48.251Z,10.40
2023-04-12T06:30:48.248Z,10.41
2023-04-12T06:31:48.492Z,10.41
2023-04-12T06:32:47.966Z,10.42
2023-04-12T06:33:47.946Z,10.40
2023-04-12T06:34:47.945Z,10.38
2023-04-12T06:35:48.227Z,10.35
2023-04-12T06:36:48.192Z,10.33
2023-04-12T06:37:47.901Z,10.33
2023-04-12T06:38:48.152Z,10.35
2023-04-12T06:39:48.128Z,10.37
2023-04-12T06:40:48.131Z,10.39
2023-04-12T06:41:48.180Z,10.42
2023-04-12T06:42:48.104Z,10.44
2023-04-12T06:43:48.124Z,10.45
2023-04-12T06:44:47.827Z,10.45
2023-04-12T06:45:48.070Z,10.45
2023-04-12T06:46:48.117Z,10.46
2023-04-12T06:47:47.832Z,10.46
2023-04-12T06:48:47.756Z,10.46
2023-04-12T06:49:47.780Z,10.45
2023-04-12T06:50:47.765Z,10.45
2023-04-12T06:51:47.748Z,10.45
2023-04-12T06:52:47.730Z,10.43
2023-04-12T06:53:47.704Z,10.44
2023-04-12T06:54:47.719Z,10.45
2023-04-12T06:55:47.993Z,10.47
2023-04-12T06:56:47.717Z,10.49
2023-04-12T06:57:47.954Z,10.50
2023-04-12T06:58:47.645Z,10.49
2023-04-12T06:59:47.941Z,10.50
2023-04-12T07:00:47.665Z,10.53
2023-04-12T07:01:47.667Z,10.57
2023-04-12T07:02:47.773Z,10.61
2023-04-12T07:03:47.759Z,10.66
2023-04-12T07:04:47.878Z,10.72
2023-04-12T07:05:46.917Z,10.77
2023-04-12T07:06:47.850Z,10.83
2023-04-12T07:07:47.604Z,10.90
2023-04-12T07:08:47.552Z,10.94
2023-04-12T07:09:48.093Z,11.00
2023-04-12T07:10:47.548Z,11.04
2023-04-12T07:11:47.837Z,11.06
2023-04-12T07:12:47.532Z,11.07
2023-04-12T07:13:47.788Z,11.05
2023-04-12T07:14:47.759Z,11.02
2023-04-12T07:15:47.747Z,10.98
2023-04-12T07:16:47.566Z,10.94
2023-04-12T07:17:47.507Z,10.90
2023-04-12T07:18:47.474Z,10.87
2023-04-12T07:19:47.445Z,10.87
2023-04-12T07:20:47.434Z,10.88
2023-04-12T07:21:47.689Z,10.88
2023-04-12T07:22:47.687Z,10.89
2023-04-12T07:23:47.387Z,10.92
2023-04-12T07:24:47.675Z,10.96
2023-04-12T07:25:47.640Z,10.99
2023-04-12T07:26:47.642Z,11.05
2023-04-12T07:27:47.612Z,11.10
2023-04-12T07:28:47.629Z,11.17
2023-04-12T07:29:47.340Z,11.23
2023-04-12T07:30:47.596Z,11.31
2023-04-12T07:31:47.319Z,11.38
2023-04-12T07:32:47.740Z,11.44
2023-04-12T07:33:47.739Z,11.49
2023-04-12T07:34:47.308Z,11.53
2023-04-12T07:35:47.542Z,11.55
2023-04-12T07:36:47.557Z,11.58
2023-04-12T07:37:47.429Z,11.60
2023-04-12T07:38:47.252Z,11.60
2023-04-12T07:39:47.539Z,11.62
2023-04-12T07:40:49.965Z,11.66
2023-04-12T07:41:47.217Z,11.70
2023-04-12T07:42:47.184Z,11.73
2023-04-12T07:43:47.194Z,11.76
2023-04-12T07:44:47.191Z,11.76
2023-04-12T07:45:47.244Z,11.73
2023-04-12T07:46:46.497Z,11.69
2023-04-12T07:47:46.526Z,11.62
2023-04-12T07:48:47.144Z,11.57
2023-04-12T07:49:47.159Z,11.52
2023-04-12T07:50:47.124Z,11.48
2023-04-12T07:51:47.107Z,11.46
2023-04-12T07:52:47.079Z,11.44
2023-04-12T07:53:47.087Z,11.45
2023-04-12T07:54:46.392Z,11.49
2023-04-12T07:55:47.073Z,11.54
2023-04-12T07:56:47.060Z,11.58
2023-04-12T07:57:47.026Z,11.60
2023-04-12T07:58:47.037Z,11.62
2023-04-12T07:59:47.027Z,11.61
2023-04-12T08:00:47.149Z,11.60
2023-04-12T08:01:47.092Z,11.58
2023-04-12T08:02:47.150Z,11.57
2023-04-12T08:03:47.153Z,11.55
2023-04-12T08:04:46.307Z,11.53
2023-04-12T08:05:46.995Z,11.52
2023-04-12T08:06:46.283Z,11.49
2023-04-12T08:07:46.925Z,11.48
2023-04-12T08:08:46.937Z,11.49
2023-04-12T08:09:46.926Z,11.50
2023-04-12T08:10:46.226Z,11.52
2023-04-12T08:11:46.240Z,11.55
2023-04-12T08:12:46.873Z,11.60
2023-04-12T08:13:46.904Z,11.61
2023-04-12T08:14:46.869Z,11.63
2023-04-12T08:15:46.203Z,11.66
2023-04-12T08:16:46.178Z,11.69
2023-04-12T08:17:46.227Z,11.68
2023-04-12T08:18:46.821Z,11.66
2023-04-12T08:19:46.138Z,11.62
2023-04-12T08:20:46.129Z,11.60
2023-04-12T08:21:46.106Z,11.58
2023-04-12T08:22:46.760Z,11.56
2023-04-12T08:23:46.784Z,11.55
2023-04-12T08:24:46.078Z,11.54
2023-04-12T08:25:46.110Z,11.50
2023-04-12T08:26:46.078Z,11.47
2023-04-12T08:27:46.117Z,11.44
2023-04-12T08:28:46.741Z,11.42
2023-04-12T08:29:46.132Z,11.41
2023-04-12T08:30:46.700Z,11.38
2023-04-12T08:31:46.716Z,11.35
2023-04-12T08:32:46.093Z,11.34
2023-04-12T08:33:46.005Z,11.32
2023-04-12T08:34:46.185Z,11.30
2023-04-12T08:35:46.680Z,11.32
2023-04-12T08:36:45.951Z,11.35
2023-04-12T08:37:45.988Z,11.37
2023-04-12T08:38:46.633Z,11.38
2023-04-12T08:39:46.619Z,11.39
2023-04-12T08:40:45.951Z,11.40
2023-04-12T08:41:46.583Z,11.42
2023-04-12T08:42:45.910Z,11.45
2023-04-12T08:43:46.560Z,11.48
2023-04-12T08:44:45.867Z,11.51
2023-04-12T08:45:46.812Z,11.54
2023-04-12T08:46:46.564Z,11.56
2023-04-12T08:47:46.522Z,11.60
2023-04-12T08:48:46.625Z,11.63
2023-04-12T08:49:45.842Z,11.66
2023-04-12T08:50:45.836Z,11.67
2023-04-12T08:51:45.844Z,11.69
2023-04-12T08:52:45.802Z,11.73
2023-04-12T08:53:46.460Z,11.76
2023-04-12T08:54:45.759Z,11.79
2023-04-12T08:55:45.777Z,11.81
2023-04-12T08:56:45.749Z,11.83
2023-04-12T08:57:45.771Z,11.87
2023-04-12T08:58:45.734Z,11.94
2023-04-12T08:59:46.404Z,12.04
2023-04-12T09:00:46.389Z,12.16
2023-04-12T09:01:46.414Z,12.27
2023-04-12T09:02:46.580Z,12.38
2023-04-12T09:03:45.900Z,12.44
2023-04-12T09:04:46.400Z,12.44
2023-04-12T09:05:46.344Z,12.44
2023-04-12T09:06:46.322Z,12.47
2023-04-12T09:07:46.295Z,12.51
2023-04-12T09:08:46.336Z,12.56
2023-04-12T09:09:45.655Z,12.64
2023-04-12T09:10:46.273Z,12.77
2023-04-12T09:11:46.268Z,12.90
2023-04-12T09:12:45.600Z,12.94
2023-04-12T09:13:45.562Z,12.91
2023-04-12T09:14:45.583Z,12.86
2023-04-12T09:15:45.543Z,12.78
2023-04-12T09:16:46.251Z,12.69
2023-04-12T09:17:46.247Z,12.63
2023-04-12T09:18:46.271Z,12.58
2023-04-12T09:19:46.181Z,12.56
2023-04-12T09:20:45.476Z,12.53
2023-04-12T09:21:45.472Z,12.49
2023-04-12T09:22:46.555Z,12.50
2023-04-12T09:23:45.451Z,12.49
2023-04-12T09:24:46.132Z,12.44
2023-04-12T09:25:45.423Z,12.38
2023-04-12T09:26:46.112Z,12.33
2023-04-12T09:27:45.421Z,12.30
2023-04-12T09:28:46.109Z,12.29
2023-04-12T09:29:45.380Z,12.28
2023-04-12T09:30:45.364Z,12.27
2023-04-12T09:31:46.087Z,12.25
2023-04-12T09:32:45.422Z,12.24
2023-04-12T09:33:46.080Z,12.26
2023-04-12T09:34:45.336Z,12.27
2023-04-12T09:35:46.078Z,12.28
2023-04-12T09:36:45.313Z,12.29
2023-04-12T09:37:45.961Z,12.30
2023-04-12T09:38:45.347Z,12.32
2023-04-12T09:39:46.009Z,12.32
2023-04-12T09:40:45.972Z,12.31
2023-04-12T09:41:45.965Z,12.27
2023-04-12T09:42:45.252Z,12.25
2023-04-12T09:43:45.232Z,12.26
2023-04-12T09:44:45.898Z,12.28
2023-04-12T09:45:45.930Z,12.30
2023-04-12T09:46:48.169Z,12.32
2023-04-12T09:47:45.915Z,12.34
2023-04-12T09:48:45.172Z,12.37
2023-04-12T09:49:45.201Z,12.41
2023-04-12T09:50:45.155Z,12.49
2023-04-12T09:51:45.831Z,12.62
2023-04-12T09:52:45.822Z,12.73
2023-04-12T09:53:45.819Z,12.80
2023-04-12T09:54:45.801Z,12.84
2023-04-12T09:55:45.783Z,12.90
2023-04-12T09:56:45.778Z,13.00
2023-04-12T09:57:45.772Z,13.10
2023-04-12T09:58:45.749Z,13.19
2023-04-12T09:59:45.743Z,13.22
2023-04-12T10:00:45.069Z,13.23
2023-04-12T10:01:45.825Z,13.28
2023-04-12T10:02:46.891Z,13.38
2023-04-12T10:03:45.090Z,13.47
2023-04-12T10:04:45.113Z,13.51
2023-04-12T10:05:44.998Z,13.50
2023-04-12T10:06:44.992Z,13.53
2023-04-12T10:07:45.646Z,13.54
2023-04-12T10:08:45.651Z,13.55
2023-04-12T10:09:45.629Z,13.57
2023-04-12T10:10:45.622Z,13.55
2023-04-12T10:11:45.608Z,13.53
2023-04-12T10:12:44.923Z,13.52
2023-04-12T10:13:45.586Z,13.48
2023-04-12T10:14:45.622Z,13.43
2023-04-12T10:15:45.605Z,13.37
2023-04-12T10:16:45.680Z,13.30
2023-04-12T10:17:45.771Z,13.25
2023-04-12T10:18:44.882Z,13.20
2023-04-12T10:19:45.540Z,13.13
2023-04-12T10:20:45.506Z,13.06
2023-04-12T10:21:45.502Z,12.98
2023-04-12T10:22:45.477Z,12.93
2023-04-12T10:23:44.789Z,12.89
2023-04-12T10:24:45.466Z,12.89
2023-04-12T10:25:45.462Z,12.90
2023-04-12T10:26:45.460Z,12.92
2023-04-12T10:27:45.455Z,12.93
2023-04-12T10:28:45.410Z,12.94
2023-04-12T10:29:44.735Z,12.94
2023-04-12T10:30:45.409Z,12.95
2023-04-12T10:31:45.422Z,12.97
2023-04-12T10:32:45.441Z,13.00
2023-04-12T10:33:45.377Z,13.03
2023-04-12T10:34:44.684Z,13.08
2023-04-12T10:35:44.686Z,13.14
2023-04-12T10:36:45.349Z,13.23
2023-04-12T10:37:44.675Z,13.34
2023-04-12T10:38:45.325Z,13.49
2023-04-12T10:39:45.437Z,13.67
2023-04-12T10:40:45.333Z,13.88
2023-04-12T10:41:44.622Z,14.13
2023-04-12T10:42:45.278Z,14.41
2023-04-12T10:43:44.587Z,14.69
2023-04-12T10:44:46.552Z,15.01
2023-04-12T10:45:44.559Z,15.38
2023-04-12T10:46:44.593Z,15.74
2023-04-12T10:47:45.229Z,16.10
2023-04-12T10:48:44.538Z,16.44
2023-04-12T10:49:45.235Z,16.77
2023-04-12T10:50:45.198Z,17.11
2023-04-12T10:51:45.221Z,17.42
2023-04-12T10:52:45.159Z,17.63
2023-04-12T10:53:44.481Z,17.80
2023-04-12T10:54:45.166Z,17.93
2023-04-12T10:55:44.577Z,18.07
2023-04-12T10:56:45.178Z,18.21
2023-04-12T10:57:45.107Z,18.35
2023-04-12T10:58:44.435Z,18.43
2023-04-12T11:00:44.492Z,18.47
2023-04-12T11:01:45.193Z,18.44
2023-04-12T11:02:45.231Z,18.35
2023-04-12T11:03:44.467Z,18.24
2023-04-12T11:04:44.411Z,18.13
2023-04-12T11:05:44.383Z,18.00
2023-04-12T11:06:44.359Z,17.83
2023-04-12T11:07:44.360Z,17.62
2023-04-12T11:08:44.997Z,17.48
2023-04-12T11:09:44.306Z,17.39
2023-04-12T11:10:44.313Z,17.33
2023-04-12T11:11:44.994Z,17.22
2023-04-12T11:12:44.972Z,17.11
2023-04-12T11:13:44.947Z,17.00
2023-04-12T11:14:44.239Z,16.86
2023-04-12T11:15:44.923Z,16.68
2023-04-12T11:16:44.940Z,16.49
2023-04-12T11:17:44.243Z,16.30
2023-04-12T11:18:44.947Z,16.12
2023-04-12T11:19:44.920Z,15.99
2023-04-12T11:20:44.893Z,15.86
2023-04-12T11:21:44.886Z,15.75
2023-04-12T11:22:44.177Z,15.67
2023-04-12T11:23:44.866Z,15.59
2023-04-12T11:24:44.182Z,15.51
2023-04-12T11:25:44.851Z,15.44
2023-04-12T11:26:44.834Z,15.38
2023-04-12T11:27:44.768Z,15.33
2023-04-12T11:28:44.776Z,15.29
2023-04-12T11:29:44.098Z,15.25
2023-04-12T11:30:44.756Z,15.23
2023-04-12T11:31:44.113Z,15.18
2023-04-12T11:32:44.760Z,15.17
2023-04-12T11:33:44.036Z,15.19
2023-04-12T11:34:44.726Z,15.27
2023-04-12T11:35:44.706Z,15.40
2023-04-12T11:36:44.694Z,15.55
2023-04-12T11:37:44.664Z,15.70
2023-04-12T11:38:45.986Z,15.81
2023-04-12T11:39:43.982Z,15.94
2023-04-12T11:40:43.960Z,16.09
2023-04-12T11:41:44.652Z,16.24
2023-04-12T11:42:44.611Z,16.39
2023-04-12T11:43:43.944Z,16.56
2023-04-12T11:44:56.197Z,16.75
2023-04-12T11:45:46.347Z,16.95
2023-04-12T11:46:44.587Z,17.14
2023-04-12T11:47:44.634Z,17.31
2023-04-12T11:48:44.562Z,17.45
2023-04-12T11:49:44.557Z,17.53
2023-04-12T11:50:43.860Z,17.57
2023-04-12T11:51:45.474Z,17.58
2023-04-12T11:52:44.502Z,17.54
2023-04-12T11:53:44.525Z,17.46
2023-04-12T11:54:44.501Z,17.34
2023-04-12T11:55:44.486Z,17.18
2023-04-12T11:56:44.478Z,16.99
2023-04-12T11:57:43.808Z,16.80
2023-04-12T11:58:44.453Z,16.62
2023-04-12T11:59:44.442Z,16.48
2023-04-12T12:00:44.438Z,16.34
2023-04-12T12:01:43.743Z,16.23
2023-04-12T12:02:55.954Z,16.11
2023-04-12T12:03:45.531Z,16.02
2023-04-12T12:04:44.048Z,15.94
2023-04-12T12:05:44.847Z,15.89
2023-04-12T12:06:44.872Z,15.87
2023-04-12T12:07:44.349Z,15.84
2023-04-12T12:08:44.360Z,15.83
2023-04-12T12:09:43.686Z,15.81
2023-04-12T12:10:59.909Z,15.79
2023-04-12T12:11:44.615Z,15.79
2023-04-12T12:12:43.639Z,15.80
2023-04-12T12:13:44.290Z,15.85
2023-04-12T12:14:43.610Z,15.93
2023-04-12T12:15:44.279Z,16.02
2023-04-12T12:16:44.256Z,16.11
2023-04-12T12:17:44.265Z,16.26
2023-04-12T12:18:44.234Z,16.44
2023-04-12T12:19:43.558Z,16.60
2023-04-12T12:20:43.553Z,16.75
2023-04-12T12:21:44.214Z,16.86
2023-04-12T12:22:44.183Z,16.96
2023-04-12T12:23:43.507Z,17.04
2023-04-12T12:24:43.781Z,17.13
2023-04-12T12:25:44.184Z,17.24
2023-04-12T12:26:43.468Z,17.33
2023-04-12T12:27:44.177Z,17.43
2023-04-12T12:28:44.128Z,17.51
2023-04-12T12:29:43.437Z,17.52
2023-04-12T12:30:44.109Z,17.47
2023-04-12T12:31:44.112Z,17.39
2023-04-12T12:32:44.163Z,17.36
2023-04-12T12:34:00.265Z,17.40
2023-04-12T12:34:44.373Z,17.44
2023-04-12T12:35:43.363Z,17.47
2023-04-12T12:36:44.067Z,17.45
2023-04-12T12:37:44.016Z,17.42
2023-04-12T12:38:44.025Z,17.35
2023-04-12T12:39:43.364Z,17.32
2023-04-12T12:40:44.000Z,17.30
2023-04-12T12:41:43.306Z,17.33
2023-04-12T12:42:43.958Z,17.39
2023-04-12T12:43:43.288Z,17.43
2023-04-12T12:44:43.348Z,17.48
2023-04-12T12:45:43.947Z,17.52
2023-04-12T12:46:55.134Z,17.52
2023-04-12T12:47:44.369Z,17.51
2023-04-12T12:48:43.240Z,17.50
2023-04-12T12:49:43.219Z,17.49
2023-04-12T12:50:43.894Z,17.48
2023-04-12T12:51:43.885Z,17.49
2023-04-12T12:52:43.214Z,17.57
2023-04-12T12:53:43.185Z,17.73